createdAt,value
2022-11-20T00:01:15.669Z,6.72
2022-11-20T00:03:42.320Z,4.70
2022-11-20T00:06:12.041Z,5.40
2022-11-20T00:08:38.999Z,6.22
2022-11-20T00:11:15.304Z,6.93
2022-11-20T00:13:43.889Z,5.72
2022-11-20T00:16:12.473Z,4.30
2022-11-20T00:18:38.926Z,5.35
2022-11-20T00:21:08.653Z,6.13
2022-11-20T00:23:35.502Z,7.22
2022-11-20T00:26:06.775Z,9.65
2022-11-20T00:28:33.794Z,8.93
2022-11-20T00:31:06.060Z,4.60
2022-11-20T00:33:32.586Z,5.78
2022-11-20T00:36:04.689Z,7.15
2022-11-20T00:38:32.656Z,5.75
2022-11-20T00:41:00.634Z,9.32
2022-11-20T00:43:28.711Z,11.40
2022-11-20T00:45:59.642Z,12.40
2022-11-20T00:48:26.126Z,12.48
2022-11-20T00:50:53.696Z,13.63
2022-11-20T00:53:20.575Z,8.50
2022-11-20T00:55:59.073Z,16.10
2022-11-20T00:58:29.437Z,8.35
2022-11-20T01:01:21.537Z,6.55
2022-11-20T01:03:50.186Z,5.53
2022-11-20T01:06:22.509Z,8.57
2022-11-20T01:08:49.901Z,10.95
2022-11-20T01:11:19.754Z,5.30
2022-11-20T01:13:49.121Z,6.07
2022-11-20T01:16:19.490Z,6.88
2022-11-20T01:18:49.449Z,4.60
2022-11-20T01:21:27.103Z,5.55
2022-11-20T01:23:53.553Z,5.90
2022-11-20T01:26:22.677Z,4.68
2022-11-20T01:28:50.372Z,4.53
2022-11-20T01:31:43.494Z,5.15
2022-11-20T01:34:15.534Z,3.30
2022-11-20T01:36:43.762Z,4.38
2022-11-20T01:39:19.314Z,7.38
2022-11-20T01:42:10.129Z,5.95
2022-11-20T01:44:49.525Z,6.38
2022-11-20T01:47:24.613Z,3.30
2022-11-20T01:50:05.928Z,4.15
2022-11-20T01:52:40.702Z,5.05
2022-11-20T01:55:14.796Z,3.35
2022-11-20T01:57:41.906Z,4.65
2022-11-20T02:00:14.247Z,2.95
2022-11-20T02:02:44.282Z,4.30
2022-11-20T02:05:23.457Z,1.10
2022-11-20T02:07:51.726Z,2.97
2022-11-20T02:10:18.137Z,4.30
2022-11-20T02:13:03.727Z,5.57
2022-11-20T02:15:30.643Z,6.10
2022-11-20T02:17:57.355Z,7.35
2022-11-20T02:20:24.161Z,6.95
2022-11-20T02:23:13.432Z,3.60
2022-11-20T02:25:42.286Z,4.57
2022-11-20T02:28:08.877Z,2.95
2022-11-20T02:30:35.252Z,3.80
2022-11-20T02:33:02.135Z,4.65
2022-11-20T02:35:28.450Z,6.55
2022-11-20T02:37:56.880Z,4.40
2022-11-20T02:40:24.087Z,7.13
2022-11-20T02:42:57.079Z,5.38
2022-11-20T02:45:25.058Z,2.00
2022-11-20T02:47:52.117Z,3.58
2022-11-20T02:50:19.339Z,3.90
2022-11-20T02:52:46.239Z,5.45
2022-11-20T02:55:12.911Z,7.28
2022-11-20T02:57:39.781Z,5.45
2022-11-20T03:00:07.692Z,6.72
2022-11-20T03:02:34.506Z,4.07
2022-11-20T03:05:01.486Z,4.82
2022-11-20T03:07:28.668Z,3.97
2022-11-20T03:09:55.651Z,3.58
2022-11-20T03:12:22.185Z,4.38
2022-11-20T03:14:52.827Z,4.25
2022-11-20T03:17:20.253Z,5.45
2022-11-20T03:19:46.666Z,5.50
2022-11-20T03:22:13.063Z,1.90
2022-11-20T03:24:39.926Z,3.05
2022-11-20T03:27:06.340Z,6.60
2022-11-20T03:29:33.310Z,4.13
2022-11-20T03:32:00.310Z,5.28
2022-11-20T03:34:26.715Z,5.13
2022-11-20T03:36:53.083Z,5.30
2022-11-20T03:39:20.196Z,4.65
2022-11-20T03:41:46.814Z,5.00
2022-11-20T03:44:13.329Z,6.07
2022-11-20T03:46:40.394Z,3.63
2022-11-20T03:49:06.851Z,9.23
2022-11-20T03:51:36.387Z,5.60
2022-11-20T03:54:08.386Z,2.67
2022-11-20T03:56:39.974Z,5.30
2022-11-20T03:59:06.962Z,4.03
2022-11-20T04:01:36.711Z,5.32
2022-11-20T04:04:03.619Z,4.65
2022-11-20T04:06:34.455Z,6.68
2022-11-20T04:09:01.410Z,3.80
2022-11-20T04:11:31.310Z,4.65
2022-11-20T04:14:03.114Z,2.45
2022-11-20T04:16:36.845Z,5.93
2022-11-20T04:19:07.191Z,5.57
2022-11-20T04:21:33.605Z,5.55
2022-11-20T04:23:59.991Z,3.60
2022-11-20T04:26:29.449Z,5.60
2022-11-20T04:28:55.854Z,4.93
2022-11-20T04:31:34.587Z,4.53
2022-11-20T04:34:02.608Z,4.32
2022-11-20T04:36:29.555Z,5.32
2022-11-20T04:39:01.881Z,5.70
2022-11-20T04:41:31.405Z,9.20
2022-11-20T04:44:00.780Z,7.32
2022-11-20T04:46:28.810Z,4.18
2022-11-20T04:48:55.753Z,5.05
2022-11-20T04:51:22.449Z,9.65
2022-11-20T04:53:49.454Z,3.88
2022-11-20T04:56:16.666Z,4.57
2022-11-20T04:58:43.318Z,6.03
2022-11-20T05:01:22.038Z,5.22
2022-11-20T05:03:49.204Z,4.88
2022-11-20T05:06:17.596Z,5.38
2022-11-20T05:08:44.793Z,5.75
2022-11-20T05:11:13.625Z,9.10
2022-11-20T05:13:40.881Z,5.15
2022-11-20T05:16:10.617Z,4.07
2022-11-20T05:18:38.140Z,6.18
2022-11-20T05:21:05.149Z,7.05
2022-11-20T05:23:33.609Z,3.15
2022-11-20T05:26:01.356Z,5.20
2022-11-20T05:28:29.774Z,3.75
2022-11-20T05:30:56.604Z,6.40
2022-11-20T05:33:23.544Z,5.28
2022-11-20T05:35:49.990Z,3.83
2022-11-20T05:38:16.971Z,4.55
2022-11-20T05:40:44.010Z,5.15
2022-11-20T05:43:11.548Z,4.93
2022-11-20T05:45:37.972Z,7.13
2022-11-20T05:48:04.886Z,4.97
2022-11-20T05:50:31.515Z,3.83
2022-11-20T05:53:01.390Z,5.90
2022-11-20T05:55:28.900Z,4.75
2022-11-20T05:57:55.845Z,5.38
2022-11-20T06:00:22.854Z,4.60
2022-11-20T06:02:49.810Z,4.22
2022-11-20T06:05:16.350Z,4.32
2022-11-20T06:07:42.816Z,6.63
2022-11-20T06:10:10.142Z,4.25
2022-11-20T06:12:36.515Z,6.03
2022-11-20T06:15:03.683Z,4.25
2022-11-20T06:17:30.553Z,3.33
2022-11-20T06:19:56.908Z,3.28
2022-11-20T06:22:23.294Z,5.63
2022-11-20T06:24:50.161Z,4.55
2022-11-20T06:27:16.866Z,5.50
2022-11-20T06:29:43.301Z,6.10
2022-11-20T06:32:10.242Z,5.32
2022-11-20T06:34:36.602Z,4.28
2022-11-20T06:37:02.957Z,6.55
2022-11-20T06:39:29.745Z,3.08
2022-11-20T06:41:58.983Z,3.65
2022-11-20T06:44:26.059Z,4.57
2022-11-20T06:46:53.070Z,4.70
2022-11-20T06:49:19.647Z,1.38
2022-11-20T06:51:46.253Z,3.72
2022-11-20T06:54:13.101Z,6.10
2022-11-20T06:56:39.536Z,3.92
2022-11-20T06:59:07.790Z,1.38
2022-11-20T07:01:35.362Z,2.40
2022-11-20T07:04:01.710Z,2.88
2022-11-20T07:06:28.153Z,5.18
2022-11-20T07:08:55.035Z,4.25
2022-11-20T07:11:21.415Z,3.60
2022-11-20T07:13:47.772Z,3.38
2022-11-20T07:16:14.770Z,5.72
2022-11-20T07:18:42.832Z,4.05
2022-11-20T07:21:12.442Z,2.65
2022-11-20T07:23:39.384Z,3.70
2022-11-20T07:26:07.318Z,3.25
2022-11-20T07:28:34.576Z,4.80
2022-11-20T07:31:01.580Z,6.97
2022-11-20T07:33:28.257Z,5.85
2022-11-20T07:35:54.647Z,4.13
2022-11-20T07:38:21.547Z,2.90
2022-11-20T07:40:47.904Z,3.85
2022-11-20T07:43:14.262Z,4.40
2022-11-20T07:45:41.808Z,4.93
2022-11-20T07:48:08.201Z,4.95
2022-11-20T07:50:34.613Z,6.95
2022-11-20T07:53:03.987Z,3.88
2022-11-20T07:55:30.397Z,2.85
2022-11-20T07:58:00.706Z,6.25
2022-11-20T08:00:28.695Z,4.40
2022-11-20T08:02:55.215Z,7.13
2022-11-20T08:05:21.831Z,3.17
2022-11-20T08:07:48.988Z,3.78
2022-11-20T08:10:19.375Z,2.70
2022-11-20T08:13:12.045Z,6.20
2022-11-20T08:15:39.863Z,4.05
2022-11-20T08:18:30.490Z,4.22
2022-11-20T08:20:57.958Z,2.58
2022-11-20T08:23:25.049Z,3.65
2022-11-20T08:25:52.018Z,6.10
2022-11-20T08:28:21.876Z,5.22
2022-11-20T08:30:51.622Z,3.25
2022-11-20T08:33:19.096Z,4.25
2022-11-20T08:35:45.686Z,6.75
2022-11-20T08:38:12.838Z,3.97
2022-11-20T08:40:39.270Z,6.78
2022-11-20T08:43:05.627Z,4.78
2022-11-20T08:45:34.977Z,4.88
2022-11-20T08:48:03.930Z,2.70
2022-11-20T08:50:33.175Z,4.38
2022-11-20T08:53:06.161Z,5.10
2022-11-20T08:55:32.594Z,5.85
2022-11-20T08:57:59.481Z,3.97
2022-11-20T09:00:25.922Z,8.13
2022-11-20T09:02:53.108Z,2.65
2022-11-20T09:05:20.106Z,3.75
2022-11-20T09:07:46.472Z,2.38
2022-11-20T09:10:28.418Z,4.13
2022-11-20T09:12:56.648Z,5.38
2022-11-20T09:15:24.631Z,3.13
2022-11-20T09:18:03.135Z,4.38
2022-11-20T09:20:30.929Z,3.15
2022-11-20T09:22:58.664Z,4.30
2022-11-20T09:25:25.985Z,3.92
2022-11-20T09:27:56.641Z,2.20
2022-11-20T09:30:23.171Z,2.58
2022-11-20T09:32:50.074Z,3.67
2022-11-20T09:35:17.098Z,2.15
2022-11-20T09:37:43.442Z,3.58
2022-11-20T09:40:23.088Z,3.95
2022-11-20T09:43:13.312Z,2.80
2022-11-20T09:46:04.372Z,3.50
2022-11-20T09:48:52.549Z,4.78
2022-11-20T09:51:56.546Z,2.00
2022-11-20T09:54:37.257Z,2.33
2022-11-20T09:57:12.947Z,3.45
2022-11-20T09:59:43.106Z,3.45
2022-11-20T10:02:25.434Z,0.90
2022-11-20T10:05:18.838Z,3.92
2022-11-20T10:07:57.413Z,2.85
2022-11-20T10:10:38.561Z,3.85
2022-11-20T10:13:35.644Z,2.47
2022-11-20T10:16:36.691Z,2.83
2022-11-20T10:19:29.729Z,2.35
2022-11-20T10:22:11.272Z,2.53
2022-11-20T10:24:58.005Z,2.25
2022-11-20T10:27:47.430Z,1.75
2022-11-20T10:30:17.547Z,4.18
2022-11-20T10:32:49.912Z,2.45
2022-11-20T10:35:29.542Z,2.30
2022-11-20T10:38:10.161Z,2.67
2022-11-20T10:40:42.062Z,1.55
2022-11-20T10:43:17.384Z,1.52
2022-11-20T10:46:32.558Z,2.40
2022-11-20T10:48:58.934Z,2.00
2022-11-20T10:52:08.991Z,1.70
2022-11-20T10:54:57.578Z,1.60
2022-11-20T10:57:50.079Z,3.17
2022-11-20T11:00:18.103Z,2.00
2022-11-20T11:02:51.847Z,2.00
2022-11-20T11:05:21.785Z,1.77
2022-11-20T11:07:51.646Z,2.67
2022-11-20T11:10:27.454Z,2.88
2022-11-20T11:12:53.889Z,2.80
2022-11-20T11:15:31.366Z,1.95
2022-11-20T11:17:57.766Z,1.73
2022-11-20T11:20:27.081Z,2.90
2022-11-20T11:22:59.728Z,2.38
2022-11-20T11:25:26.136Z,2.47
2022-11-20T11:27:55.926Z,1.40
2022-11-20T11:30:24.438Z,3.00
2022-11-20T11:32:51.351Z,1.15
2022-11-20T11:35:27.157Z,1.27
2022-11-20T11:38:03.103Z,1.35
2022-11-20T11:40:33.201Z,1.60
2022-11-20T11:43:05.251Z,3.05
2022-11-20T11:45:32.428Z,2.03
2022-11-20T11:48:04.338Z,1.52
2022-11-20T11:50:31.905Z,2.75
2022-11-20T11:53:17.611Z,1.63
2022-11-20T11:56:03.704Z,1.08
2022-11-20T11:58:51.821Z,2.13
2022-11-20T12:01:45.673Z,2.67
2022-11-20T12:04:33.001Z,1.15
2022-11-20T12:07:24.349Z,2.35
2022-11-20T12:09:56.085Z,1.20
2022-11-20T12:12:28.283Z,1.35
2022-11-20T12:14:56.982Z,3.50
2022-11-20T12:17:24.067Z,1.88
2022-11-20T12:19:50.527Z,3.17
2022-11-20T12:22:56.000Z,1.20
2022-11-20T12:25:36.256Z,2.03
2022-11-20T12:28:03.074Z,1.30
2022-11-20T12:30:33.284Z,1.58
2022-11-20T12:33:28.977Z,2.38
2022-11-20T12:38:47.733Z,3.42
2022-11-20T12:42:10.475Z,2.03
2022-11-20T12:45:11.208Z,2.10
2022-11-20T12:48:04.174Z,2.65
2022-11-20T12:54:03.729Z,6.53
2022-11-20T12:57:04.124Z,1.55
2022-11-20T13:00:05.527Z,1.00
2022-11-20T13:02:57.623Z,1.27
2022-11-20T13:05:45.505Z,2.88
2022-11-20T13:08:25.918Z,1.80
2022-11-20T13:11:12.491Z,2.25
2022-11-20T13:13:51.532Z,0.95
2022-11-20T13:16:20.712Z,2.42
2022-11-20T13:18:47.796Z,1.65
2022-11-20T13:21:20.212Z,1.25
2022-11-20T13:23:46.829Z,1.45
2022-11-20T13:26:22.685Z,1.50
2022-11-20T13:29:12.495Z,1.20
2022-11-20T13:31:45.573Z,1.52
2022-11-20T13:34:25.579Z,0.90
2022-11-20T13:36:55.761Z,1.00
2022-11-20T13:39:31.074Z,2.50
2022-11-20T13:42:29.502Z,1.20
2022-11-20T13:45:01.590Z,0.63
2022-11-20T13:47:30.044Z,1.23
2022-11-20T13:50:00.175Z,0.75
2022-11-20T13:52:45.589Z,0.80
2022-11-20T13:55:33.500Z,2.47
2022-11-20T13:58:00.631Z,2.13
2022-11-20T14:00:27.439Z,0.77
2022-11-20T14:03:14.306Z,2.53
2022-11-20T14:05:49.391Z,1.88
2022-11-20T14:08:28.660Z,2.35
2022-11-20T14:11:30.717Z,8.95
2022-11-20T14:13:59.349Z,1.10
2022-11-20T14:16:28.534Z,0.90
2022-11-20T14:18:56.502Z,8.25
2022-11-20T14:21:28.865Z,0.77
2022-11-20T14:24:05.202Z,4.47
2022-11-20T14:26:32.805Z,1.85
2022-11-20T14:29:00.048Z,0.40
2022-11-20T14:31:28.663Z,0.60
2022-11-20T14:33:56.434Z,2.30
2022-11-20T14:36:26.690Z,0.52
2022-11-20T14:38:54.389Z,1.45
2022-11-20T14:41:23.657Z,0.70
2022-11-20T14:44:01.222Z,0.80
2022-11-20T14:46:29.229Z,1.33
2022-11-20T14:49:00.922Z,1.85
2022-11-20T14:51:42.185Z,1.05
2022-11-20T14:54:17.162Z,5.03
2022-11-20T14:56:55.736Z,1.42
2022-11-20T14:59:26.910Z,1.80
2022-11-20T15:02:11.964Z,1.13
2022-11-20T15:04:47.286Z,3.47
2022-11-20T15:07:25.624Z,1.55
2022-11-20T15:10:13.032Z,3.65
2022-11-20T15:12:47.314Z,4.35
2022-11-20T15:15:18.586Z,0.73
2022-11-20T15:17:44.969Z,1.38
2022-11-20T15:20:17.555Z,2.28
2022-11-20T15:22:44.237Z,2.78
2022-11-20T15:25:19.219Z,1.13
2022-11-20T15:27:49.049Z,1.58
2022-11-20T15:30:17.759Z,4.22
2022-11-20T15:32:45.659Z,6.68
2022-11-20T15:35:12.174Z,2.45
2022-11-20T15:37:39.545Z,0.93
2022-11-20T15:40:08.243Z,1.95
2022-11-20T15:42:35.949Z,1.38
2022-11-20T15:45:02.716Z,1.52
2022-11-20T15:47:33.236Z,0.90
2022-11-20T15:50:00.403Z,5.97
2022-11-20T15:52:28.510Z,0.88
2022-11-20T15:54:55.000Z,1.98
2022-11-20T15:57:21.870Z,2.58
2022-11-20T15:59:48.351Z,7.25
2022-11-20T16:02:19.379Z,3.72
2022-11-20T16:04:46.406Z,2.67
2022-11-20T16:07:14.787Z,4.18
2022-11-20T16:09:41.220Z,21.45
2022-11-20T16:12:30.901Z,23.52
2022-11-20T16:15:16.094Z,8.80
2022-11-20T16:17:45.004Z,10.05
2022-11-20T16:20:12.457Z,5.60
2022-11-20T16:22:39.342Z,5.30
2022-11-20T16:25:06.097Z,5.13
2022-11-20T16:27:32.513Z,7.65
2022-11-20T16:29:59.049Z,6.70
2022-11-20T16:32:25.453Z,7.07
2022-11-20T16:34:52.403Z,5.50
2022-11-20T16:37:18.759Z,6.43
2022-11-20T16:39:45.166Z,4.72
2022-11-20T16:42:12.115Z,7.18
2022-11-20T16:44:38.497Z,5.20
2022-11-20T16:47:04.926Z,8.88
2022-11-20T16:49:32.475Z,7.88
2022-11-20T16:51:59.519Z,9.65
2022-11-20T16:54:26.395Z,6.43
2022-11-20T16:56:54.506Z,5.85
2022-11-20T16:59:20.930Z,2.72
2022-11-20T17:01:47.447Z,12.52
2022-11-20T17:04:14.662Z,12.40
2022-11-20T17:06:44.234Z,7.35
2022-11-20T17:09:11.198Z,7.00
2022-11-20T17:11:38.418Z,5.43
2022-11-20T17:14:07.265Z,7.88
2022-11-20T17:16:35.163Z,8.13
2022-11-20T17:19:03.662Z,6.78
2022-11-20T17:21:32.121Z,6.20
2022-11-20T17:24:04.020Z,6.45
2022-11-20T17:26:31.027Z,5.57
2022-11-20T17:28:59.898Z,6.82
2022-11-20T17:31:27.641Z,5.68
2022-11-20T17:33:54.443Z,5.20
2022-11-20T17:36:21.927Z,7.10
2022-11-20T17:38:48.489Z,5.70
2022-11-20T17:41:17.527Z,4.32
2022-11-20T17:43:44.473Z,3.33
2022-11-20T17:46:14.257Z,4.45
2022-11-20T17:48:45.065Z,4.63
2022-11-20T17:51:13.916Z,4.03
2022-11-20T17:53:43.595Z,3.20
2022-11-20T17:56:29.366Z,3.17
2022-11-20T17:58:56.026Z,2.33
2022-11-20T18:01:22.649Z,4.22
2022-11-20T18:03:49.853Z,5.72
2022-11-20T18:06:21.253Z,5.68
2022-11-20T18:08:48.634Z,5.88
2022-11-20T18:11:18.282Z,4.10
2022-11-20T18:14:05.160Z,4.25
2022-11-20T18:16:37.702Z,3.30
2022-11-20T18:19:05.173Z,3.25
2022-11-20T18:21:32.134Z,2.63
2022-11-20T18:23:58.676Z,6.03
2022-11-20T18:26:26.474Z,2.92
2022-11-20T18:28:53.282Z,4.50
2022-11-20T18:31:20.410Z,2.50
2022-11-20T18:33:47.815Z,6.43
2022-11-20T18:36:19.910Z,3.67
2022-11-20T18:38:48.826Z,3.05
2022-11-20T18:41:35.674Z,3.70
2022-11-20T18:44:23.680Z,3.70
2022-11-20T18:46:50.372Z,2.90
2022-11-20T18:49:17.062Z,3.55
2022-11-20T18:51:44.642Z,4.05
2022-11-20T18:54:12.890Z,6.03
2022-11-20T18:56:39.425Z,5.35
2022-11-20T18:59:08.546Z,5.40
2022-11-20T19:01:36.194Z,3.00
2022-11-20T19:04:10.475Z,5.15
2022-11-20T19:06:39.047Z,4.22
2022-11-20T19:09:06.343Z,3.88
2022-11-20T19:11:32.699Z,5.03
2022-11-20T19:13:59.653Z,6.53
2022-11-20T19:16:26.020Z,7.90
2022-11-20T19:18:52.743Z,9.63
2022-11-20T19:21:22.562Z,6.15
2022-11-20T19:23:50.933Z,7.45
2022-11-20T19:26:17.685Z,5.72
2022-11-20T19:28:45.199Z,6.28
2022-11-20T19:31:14.312Z,5.40
2022-11-20T19:33:41.541Z,5.20
2022-11-20T19:36:43.121Z,7.10
2022-11-20T19:39:12.317Z,3.28
2022-11-20T19:41:40.966Z,5.15
2022-11-20T19:44:13.820Z,4.57
2022-11-20T19:46:41.114Z,5.75
2022-11-20T19:49:10.652Z,4.03
2022-11-20T19:51:39.096Z,4.40
2022-11-20T19:54:06.195Z,4.80
2022-11-20T19:56:34.374Z,6.55
2022-11-20T19:59:01.330Z,3.40
2022-11-20T20:01:30.197Z,2.10
2022-11-20T20:04:01.664Z,0.95
2022-11-20T20:06:28.556Z,1.10
2022-11-20T20:09:00.173Z,1.65
2022-11-20T20:11:28.525Z,0.75
2022-11-20T20:13:56.277Z,1.88
2022-11-20T20:16:26.091Z,1.15
2022-11-20T20:18:58.924Z,1.70
2022-11-20T20:21:25.345Z,0.52
2022-11-20T20:23:53.847Z,1.52
2022-11-20T20:26:22.098Z,1.20
2022-11-20T20:28:48.528Z,2.45
2022-11-20T20:31:18.023Z,1.67
2022-11-20T20:33:45.161Z,2.15
2022-11-20T20:36:13.769Z,3.92
2022-11-20T20:38:40.373Z,1.80
2022-11-20T20:41:07.216Z,1.05
2022-11-20T20:43:53.556Z,1.38
2022-11-20T20:46:20.857Z,0.82
2022-11-20T20:48:52.972Z,1.33
2022-11-20T20:51:21.344Z,1.00
2022-11-20T20:53:48.218Z,2.05
2022-11-20T20:56:14.990Z,1.20
2022-11-20T20:58:41.529Z,0.60
2022-11-20T21:01:11.601Z,3.17
2022-11-20T21:03:38.293Z,3.10
2022-11-20T21:06:06.237Z,1.23
2022-11-20T21:08:33.717Z,1.10
2022-11-20T21:11:08.782Z,1.58
2022-11-20T21:13:37.065Z,0.50
2022-11-20T21:16:04.041Z,0.40
2022-11-20T21:18:33.746Z,1.05
2022-11-20T21:21:19.691Z,1.08
2022-11-20T21:23:47.579Z,0.60
2022-11-20T21:26:14.495Z,0.80
2022-11-20T21:28:41.310Z,2.33
2022-11-20T21:31:13.282Z,1.08
2022-11-20T21:33:45.937Z,0.65
2022-11-20T21:36:18.076Z,1.15
2022-11-20T21:38:45.178Z,1.38
2022-11-20T21:41:13.866Z,2.38
2022-11-20T21:43:40.518Z,1.35
2022-11-20T21:46:11.832Z,1.83
2022-11-20T21:48:40.427Z,1.10
2022-11-20T21:51:09.936Z,1.58
2022-11-20T21:53:37.052Z,1.20
2022-11-20T21:56:04.694Z,1.00
2022-11-20T21:58:31.745Z,1.55
2022-11-20T22:00:58.698Z,0.38
2022-11-20T22:03:25.093Z,0.50
2022-11-20T22:05:56.348Z,0.25
2022-11-20T22:08:24.934Z,0.45
2022-11-20T22:10:59.370Z,0.55
2022-11-20T22:13:45.781Z,0.45
2022-11-20T22:16:12.548Z,0.77
2022-11-20T22:18:58.126Z,0.75
2022-11-20T22:21:28.124Z,0.63
2022-11-20T22:23:55.939Z,0.40
2022-11-20T22:26:28.026Z,1.05
2022-11-20T22:28:57.900Z,1.13
2022-11-20T22:31:26.809Z,0.57
2022-11-20T22:33:53.772Z,0.80
2022-11-20T22:36:23.261Z,0.93
2022-11-20T22:38:50.460Z,0.70
2022-11-20T22:41:22.263Z,0.50
2022-11-20T22:43:53.570Z,0.77
2022-11-20T22:46:20.370Z,1.67
2022-11-20T22:48:52.445Z,1.27
2022-11-20T22:51:20.790Z,0.30
2022-11-20T22:53:47.662Z,0.65
2022-11-20T22:56:14.853Z,0.35
2022-11-20T22:58:44.712Z,0.50
2022-11-20T23:01:12.333Z,0.32
2022-11-20T23:03:40.239Z,0.47
2022-11-20T23:06:08.011Z,0.63
2022-11-20T23:08:34.408Z,0.60
2022-11-20T23:11:06.042Z,0.32
2022-11-20T23:13:33.201Z,0.90
2022-11-20T23:16:05.781Z,0.80
2022-11-20T23:18:34.898Z,0.55
2022-11-20T23:21:09.590Z,0.88
2022-11-20T23:23:36.783Z,0.40
2022-11-20T23:26:08.696Z,0.50
2022-11-20T23:28:36.201Z,0.57
2022-11-20T23:31:03.409Z,0.93
2022-11-20T23:33:30.053Z,0.45
2022-11-20T23:35:57.369Z,0.40
2022-11-20T23:38:23.880Z,0.82
2022-11-20T23:40:51.521Z,0.82
2022-11-20T23:43:20.133Z,0.70
2022-11-20T23:45:51.783Z,0.70
2022-11-20T23:48:19.903Z,0.60
2022-11-20T23:50:46.747Z,1.75
2022-11-20T23:53:14.863Z,0.63
2022-11-20T23:55:55.295Z,0.30
2022-11-20T23:58:23.632Z,1.85
